Time;durP1;ratioP1;P1;durP2;ratioP2;P2;SDS_P1;SDS_P2;PMS_P1;PMS_P2;Temp;Humidity;BMP_temperature;BMP_pressure;BME280_temperature;BME280_humidity;BME280_pressure;Samples;Min_cycle;Max_cycle;Signal;HPM_P1;HPM_P2
2021/08/20 00:01:55;;;;;;;6.53;4.43;;;;;;;-142.25;100.00;58004.16;5098115;28;20128;-67
2021/08/20 00:04:21;;;;;;;5.05;4.22;;;;;;;-142.25;100.00;58004.16;5099627;28;20043;-67
2021/08/20 00:06:46;;;;;;;4.80;4.40;;;;;;;-142.25;100.00;58004.16;5101555;28;20039;-67
2021/08/20 00:09:12;;;;;;;4.57;4.15;;;;;;;-142.25;100.00;58004.16;5103915;28;20375;-66
2021/08/20 00:11:37;;;;;;;4.82;4.10;;;;;;;-142.25;100.00;58004.16;5101538;28;20042;-67
2021/08/20 00:14:07;;;;;;;8.85;4.20;;;;;;;-142.25;100.00;58004.16;5102473;28;20042;-67
2021/08/20 00:16:33;;;;;;;4.78;4.20;;;;;;;-142.25;100.00;58004.16;5102280;28;20043;-67
2021/08/20 00:18:59;;;;;;;5.82;4.10;;;;;;;-142.25;100.00;58004.16;5103513;28;20032;-66
2021/08/20 00:21:25;;;;;;;6.53;4.72;;;;;;;-142.25;100.00;58004.16;5103177;28;20374;-66
2021/08/20 00:23:50;;;;;;;7.53;4.38;;;;;;;-142.25;100.00;58004.16;5103800;28;20050;-67
2021/08/20 00:26:16;;;;;;;4.85;3.72;;;;;;;-142.25;100.00;58004.16;5102286;28;20042;-66
2021/08/20 00:28:41;;;;;;;4.97;3.97;;;;;;;-142.25;100.00;58004.16;5102883;28;20145;-66
2021/08/20 00:31:06;;;;;;;5.15;4.65;;;;;;;-142.25;100.00;58004.16;5106026;28;20058;-66
2021/08/20 00:33:34;;;;;;;6.22;4.32;;;;;;;-142.25;100.00;58004.16;5105516;28;20088;-66
2021/08/20 00:36:00;;;;;;;4.32;3.92;;;;;;;-142.25;100.00;58004.16;5103255;28;20061;-66
2021/08/20 00:38:25;;;;;;;6.43;4.18;;;;;;;-142.25;100.00;58004.16;5102860;28;20441;-66
2021/08/20 00:40:54;;;;;;;6.05;4.63;;;;;;;-142.25;100.00;58004.16;5103340;28;20330;-66
2021/08/20 00:43:20;;;;;;;5.22;4.72;;;;;;;-142.25;100.00;58004.16;5105574;28;20036;-66
2021/08/20 00:45:54;;;;;;;5.47;4.97;;;;;;;-142.25;100.00;58004.16;5102269;28;20036;-66
2021/08/20 00:48:20;;;;;;;4.57;4.18;;;;;;;-142.25;100.00;58004.16;5102295;28;20032;-67
2021/08/20 00:50:46;;;;;;;6.88;4.80;;;;;;;-142.25;100.00;58004.16;5101238;28;20105;-66
2021/08/20 00:53:11;;;;;;;5.38;4.43;;;;;;;-142.25;100.00;58004.16;5101337;28;20046;-66
2021/08/20 00:55:37;;;;;;;4.63;4.10;;;;;;;-142.25;100.00;58004.16;5103030;28;20035;-66
2021/08/20 00:58:03;;;;;;;5.80;4.13;;;;;;;-142.25;100.00;58004.16;5100002;28;20310;-66
2021/08/20 01:00:28;;;;;;;6.50;5.32;;;;;;;-142.25;100.00;58004.16;5102445;28;20028;-66
2021/08/20 01:02:54;;;;;;;7.78;4.72;;;;;;;-142.25;100.00;58004.16;5101712;28;20117;-66
2021/08/20 01:05:20;;;;;;;5.38;4.85;;;;;;;-142.25;100.00;58004.16;5101398;28;20266;-67
2021/08/20 01:07:47;;;;;;;6.93;4.80;;;;;;;-142.25;100.00;58004.16;5101363;28;20028;-66
2021/08/20 01:10:15;;;;;;;5.50;3.95;;;;;;;-142.25;100.00;58004.16;5101211;28;20043;-67
2021/08/20 01:12:41;;;;;;;4.78;3.97;;;;;;;-142.25;100.00;58004.16;5100492;28;20035;-66
2021/08/20 01:15:07;;;;;;;4.35;3.95;;;;;;;-142.25;100.00;58004.16;5102227;28;20032;-66
2021/08/20 01:17:33;;;;;;;4.40;4.00;;;;;;;-142.25;100.00;58004.16;5102059;28;20039;-66
2021/08/20 01:20:00;;;;;;;5.28;4.35;;;;;;;-142.25;100.00;58004.16;5100580;28;20035;-66
2021/08/20 01:22:26;;;;;;;4.65;4.22;;;;;;;-142.25;100.00;58004.16;5100411;28;20329;-66
2021/08/20 01:25:03;;;;;;;4.53;3.70;;;;;;;-142.25;100.00;58004.16;5109665;28;20123;-67
2021/08/20 01:27:30;;;;;;;4.78;3.80;;;;;;;-142.25;100.00;58004.16;5102540;28;20073;-67
2021/08/20 01:29:55;;;;;;;4.88;4.38;;;;;;;-142.25;100.00;58004.16;5102056;28;20311;-66
2021/08/20 01:32:22;;;;;;;4.80;4.30;;;;;;;-142.25;100.00;58004.16;5101513;28;20051;-67
2021/08/20 01:34:48;;;;;;;3.88;3.58;;;;;;;-142.25;100.00;58004.16;5102172;28;20051;-67
2021/08/20 01:37:13;;;;;;;6.55;4.70;;;;;;;-142.25;100.00;58004.16;5102425;28;20050;-66
2021/08/20 01:39:38;;;;;;;4.88;4.45;;;;;;;-142.25;100.00;58004.16;5101259;28;20039;-66
2021/08/20 01:42:04;;;;;;;6.70;4.15;;;;;;;-142.25;100.00;58004.16;5101829;28;20106;-66
2021/08/20 01:44:29;;;;;;;4.18;3.85;;;;;;;-142.25;100.00;58004.16;5100795;28;20425;-66
2021/08/20 01:46:55;;;;;;;5.00;4.50;;;;;;;-142.25;100.00;58004.16;5103197;28;20277;-66
2021/08/20 01:49:21;;;;;;;4.70;4.20;;;;;;;-142.25;100.00;58004.16;5099833;28;20028;-66
2021/08/20 01:51:46;;;;;;;5.70;4.05;;;;;;;-142.25;100.00;58004.16;5103487;28;20424;-66
2021/08/20 01:54:12;;;;;;;4.25;3.85;;;;;;;-142.25;100.00;58004.16;5102200;28;20027;-66
2021/08/20 01:56:37;;;;;;;9.85;3.78;;;;;;;-142.25;100.00;58004.16;5100906;28;20031;-66
2021/08/20 01:59:03;;;;;;;6.18;4.22;;;;;;;-142.25;100.00;58004.16;5099183;28;20040;-66
2021/08/20 02:01:30;;;;;;;4.40;4.00;;;;;;;-142.25;100.00;58004.16;5100570;28;20031;-66
2021/08/20 02:03:56;;;;;;;5.18;4.43;;;;;;;-142.25;100.00;58004.16;5099822;28;20050;-66
2021/08/20 02:06:22;;;;;;;5.30;4.13;;;;;;;-142.25;100.00;58004.16;5100531;28;20035;-66
2021/08/20 02:08:47;;;;;;;6.05;3.35;;;;;;;-142.25;100.00;58004.16;5102194;28;20031;-66
2021/08/20 02:11:13;;;;;;;4.75;3.85;;;;;;;-142.25;100.00;58004.16;5102793;28;20046;-66
2021/08/20 02:13:39;;;;;;;4.72;4.32;;;;;;;-142.25;100.00;58004.16;5100510;28;20399;-66
2021/08/20 02:16:06;;;;;;;4.47;4.05;;;;;;;-142.25;100.00;58004.16;5099933;28;20036;-66
2021/08/20 02:18:32;;;;;;;4.32;3.92;;;;;;;-142.25;100.00;58004.16;5109567;28;20322;-66
2021/08/20 02:20:57;;;;;;;5.00;4.45;;;;;;;-142.25;100.00;58004.16;5099775;28;20035;-66
2021/08/20 02:23:23;;;;;;;7.85;4.18;;;;;;;-142.25;100.00;58004.16;5099272;28;20032;-66
2021/08/20 02:25:48;;;;;;;5.78;3.97;;;;;;;-142.25;100.00;58004.16;5098239;28;20032;-65
2021/08/20 02:28:14;;;;;;;4.88;4.38;;;;;;;-142.25;100.00;58004.16;5100267;28;20035;-66
2021/08/20 02:30:39;;;;;;;3.85;3.53;;;;;;;-142.25;100.00;58004.16;5098290;28;20277;-66
2021/08/20 02:33:05;;;;;;;4.47;4.07;;;;;;;-142.25;100.00;58004.16;5099089;28;20028;-66
2021/08/20 02:35:30;;;;;;;5.60;4.82;;;;;;;-142.25;100.00;58004.16;5099256;28;20861;-66
2021/08/20 02:37:56;;;;;;;4.63;3.88;;;;;;;-142.25;100.00;58004.16;5098912;28;20039;-66
2021/08/20 02:40:22;;;;;;;4.63;4.22;;;;;;;-142.25;100.00;58004.16;5100890;28;20024;-65
2021/08/20 02:42:48;;;;;;;4.07;3.78;;;;;;;-142.25;100.00;58004.16;5098031;28;20289;-65
2021/08/20 02:45:14;;;;;;;4.30;3.70;;;;;;;-142.25;100.00;58004.16;5100686;28;20039;-66
2021/08/20 02:47:40;;;;;;;4.28;3.80;;;;;;;-142.25;100.00;58004.16;5100808;28;20442;-66
2021/08/20 02:50:06;;;;;;;5.88;5.28;;;;;;;-142.25;100.00;58004.16;5100579;28;20040;-66
2021/08/20 02:52:31;;;;;;;4.30;3.83;;;;;;;-142.25;100.00;58004.16;5102103;28;20042;-66
2021/08/20 02:54:57;;;;;;;4.13;3.83;;;;;;;-142.25;100.00;58004.16;5097796;28;20032;-66
2021/08/20 02:57:23;;;;;;;4.28;3.88;;;;;;;-142.25;100.00;58004.16;5100296;28;20036;-66
2021/08/20 02:59:49;;;;;;;3.80;3.40;;;;;;;-142.25;100.00;58004.16;5100496;28;20046;-66
2021/08/20 03:02:15;;;;;;;5.07;4.20;;;;;;;-142.25;100.00;58004.16;5100297;28;20058;-66
2021/08/20 03:04:40;;;;;;;5.63;4.32;;;;;;;-142.25;100.00;58004.16;5098953;28;20028;-66
2021/08/20 03:07:06;;;;;;;4.88;4.05;;;;;;;-142.25;100.00;58004.16;5100119;28;20042;-66
2021/08/20 03:09:31;;;;;;;5.22;4.25;;;;;;;-142.25;100.00;58004.16;5098554;28;20168;-66
2021/08/20 03:11:56;;;;;;;4.85;4.05;;;;;;;-142.25;100.00;58004.16;5100837;28;20055;-65
2021/08/20 03:14:22;;;;;;;4.20;3.85;;;;;;;-142.25;100.00;58004.16;5099082;28;20032;-66
2021/08/20 03:16:47;;;;;;;3.63;3.33;;;;;;;-142.25;100.00;58004.16;5096943;28;20047;-66
2021/08/20 03:19:13;;;;;;;4.20;3.80;;;;;;;-142.25;100.00;58004.16;5097364;28;20047;-66
2021/08/20 03:21:38;;;;;;;4.53;4.07;;;;;;;-142.25;100.00;58004.16;5099851;28;20032;-65
2021/08/20 03:24:04;;;;;;;4.50;4.10;;;;;;;-142.25;100.00;58004.16;5101110;28;20070;-66
2021/08/20 03:26:29;;;;;;;6.07;4.50;;;;;;;-142.25;100.00;58004.16;5098924;28;20396;-66
2021/08/20 03:28:54;;;;;;;4.25;3.95;;;;;;;-142.25;100.00;58004.16;5099669;28;20105;-66
2021/08/20 03:31:20;;;;;;;6.05;4.35;;;;;;;-142.25;100.00;58004.16;5100029;28;20024;-66
2021/08/20 03:33:46;;;;;;;8.45;6.50;;;;;;;-142.25;100.00;58004.16;5098930;28;20044;-66
2021/08/20 03:36:12;;;;;;;7.97;4.38;;;;;;;-142.25;100.00;58004.16;5098739;28;20323;-66
2021/08/20 03:38:38;;;;;;;6.22;5.15;;;;;;;-142.25;100.00;58004.16;5096900;28;20032;-66
2021/08/20 03:41:03;;;;;;;5.95;5.35;;;;;;;-142.25;100.00;58004.16;5098980;28;20039;-66
2021/08/20 03:43:29;;;;;;;4.20;3.83;;;;;;;-142.25;100.00;58004.16;5103290;28;20039;-67
2021/08/20 03:45:55;;;;;;;4.72;3.92;;;;;;;-142.25;100.00;58004.16;5103022;28;20032;-66
2021/08/20 03:48:20;;;;;;;5.55;4.43;;;;;;;-142.25;100.00;58004.16;5104165;28;20131;-66
2021/08/20 03:50:45;;;;;;;6.43;4.45;;;;;;;-142.25;100.00;58004.16;5102778;28;20035;-66
2021/08/20 03:53:11;;;;;;;6.03;4.47;;;;;;;-142.25;100.00;58004.16;5103342;28;20136;-66
2021/08/20 03:55:36;;;;;;;4.80;4.40;;;;;;;-142.25;100.00;58004.16;5103905;28;20126;-66
2021/08/20 03:58:01;;;;;;;6.53;4.32;;;;;;;-142.25;100.00;58004.16;5104020;28;20035;-66
2021/08/20 04:00:27;;;;;;;4.15;3.75;;;;;;;-142.25;100.00;58004.16;5103415;28;20292;-66
2021/08/20 04:02:52;;;;;;;6.97;4.55;;;;;;;-142.25;100.00;58004.16;5103017;28;20032;-66
2021/08/20 04:05:18;;;;;;;4.78;4.35;;;;;;;-142.25;100.00;58004.16;5102493;28;20329;-66
2021/08/20 04:07:45;;;;;;;6.10;4.57;;;;;;;-142.25;100.00;58004.16;5102679;28;20028;-66
2021/08/20 04:10:10;;;;;;;9.48;4.47;;;;;;;-142.25;100.00;58004.16;5103485;28;20036;-66
2021/08/20 04:12:36;;;;;;;6.38;4.80;;;;;;;-142.25;100.00;58004.16;5101994;28;20045;-66
2021/08/20 04:15:01;;;;;;;5.25;4.30;;;;;;;-142.25;100.00;58004.16;5104475;28;20040;-66
2021/08/20 04:17:27;;;;;;;4.45;4.05;;;;;;;-142.25;100.00;58004.16;5101844;28;20043;-66
2021/08/20 04:19:52;;;;;;;6.13;4.45;;;;;;;-142.25;100.00;58004.16;5103788;28;20032;-65
2021/08/20 04:22:18;;;;;;;4.63;4.13;;;;;;;-142.25;100.00;58004.16;5105125;28;20332;-65
2021/08/20 04:24:43;;;;;;;5.78;4.25;;;;;;;-142.25;100.00;58004.16;5102709;28;20036;-65
2021/08/20 04:27:09;;;;;;;5.07;4.03;;;;;;;-142.25;100.00;58004.16;5101860;28;20039;-65
2021/08/20 04:29:35;;;;;;;5.70;4.05;;;;;;;-142.25;100.00;58004.16;5101110;28;20032;-66
2021/08/20 04:32:01;;;;;;;5.10;4.18;;;;;;;-142.25;100.00;58004.16;5103334;28;20051;-66
2021/08/20 04:34:26;;;;;;;4.28;3.80;;;;;;;-142.25;100.00;58004.16;5102717;28;20296;-66
2021/08/20 04:36:52;;;;;;;5.32;4.03;;;;;;;-142.25;100.00;58004.16;5100689;28;20422;-66
2021/08/20 04:39:18;;;;;;;5.13;4.25;;;;;;;-142.25;100.00;58004.16;5101536;28;20042;-66
2021/08/20 04:41:43;;;;;;;4.75;4.15;;;;;;;-142.25;100.00;58004.16;5105536;28;20187;-65
2021/08/20 04:44:08;;;;;;;5.22;3.63;;;;;;;-142.25;100.00;58004.16;5102584;28;20024;-66
2021/08/20 04:46:34;;;;;;;5.60;3.85;;;;;;;-142.25;100.00;58004.16;5104231;28;20292;-66
2021/08/20 04:48:59;;;;;;;4.57;4.20;;;;;;;-142.25;100.00;58004.16;5102032;28;20552;-66
2021/08/20 04:51:25;;;;;;;4.47;4.07;;;;;;;-142.25;100.00;58004.16;5099343;28;20134;-66
2021/08/20 04:53:51;;;;;;;4.82;3.65;;;;;;;-142.25;100.00;58004.16;5101343;28;20032;-66
2021/08/20 04:56:17;;;;;;;4.65;3.92;;;;;;;-142.25;100.00;58004.16;5099099;28;20031;-66
2021/08/20 04:58:43;;;;;;;6.65;4.10;;;;;;;-142.25;100.00;58004.16;5103041;28;20075;-66
2021/08/20 05:01:10;;;;;;;4.40;4.00;;;;;;;-142.25;100.00;58004.16;5103781;28;20700;-66
2021/08/20 05:03:36;;;;;;;6.38;4.50;;;;;;;-142.25;100.00;58004.16;5102220;28;20285;-65
2021/08/20 05:06:01;;;;;;;5.00;4.50;;;;;;;-142.25;100.00;58004.16;5102921;28;20020;-65
2021/08/20 05:08:27;;;;;;;6.28;4.45;;;;;;;-142.25;100.00;58004.16;5099531;28;20028;-65
2021/08/20 05:10:52;;;;;;;6.18;4.40;;;;;;;-142.25;100.00;58004.16;5101183;28;20031;-65
2021/08/20 05:13:18;;;;;;;6.35;4.88;;;;;;;-142.25;100.00;58004.16;5102035;28;20562;-66
2021/08/20 05:15:43;;;;;;;8.15;4.97;;;;;;;-142.25;100.00;58004.16;5103371;28;20043;-66
2021/08/20 05:18:09;;;;;;;6.32;5.03;;;;;;;-142.25;100.00;58004.16;5100488;28;20032;-66
2021/08/20 05:20:34;;;;;;;6.63;5.07;;;;;;;-142.25;100.00;58004.16;5100381;28;20035;-65
2021/08/20 05:23:00;;;;;;;7.85;5.13;;;;;;;-142.25;100.00;58004.16;5099988;28;20108;-66
2021/08/20 05:25:26;;;;;;;7.50;5.20;;;;;;;-142.25;100.00;58004.16;5102446;28;20023;-66
2021/08/20 05:27:52;;;;;;;11.48;6.38;;;;;;;-142.25;100.00;58004.16;5100364;28;20016;-66
2021/08/20 05:30:18;;;;;;;5.10;4.70;;;;;;;-142.25;100.00;58004.16;5100797;28;20028;-66
2021/08/20 05:32:44;;;;;;;11.23;6.70;;;;;;;-142.25;100.00;58004.16;5103427;28;20043;-66
2021/08/20 05:35:12;;;;;;;4.70;3.83;;;;;;;-142.25;100.00;58004.16;5101061;28;20304;-66
2021/08/20 05:37:38;;;;;;;6.13;4.47;;;;;;;-142.25;100.00;58004.16;5100855;28;20432;-66
2021/08/20 05:40:05;;;;;;;4.32;4.00;;;;;;;-142.25;100.00;58004.16;5101889;28;20020;-66
2021/08/20 05:42:31;;;;;;;5.97;3.80;;;;;;;-142.25;100.00;58004.16;5100831;28;20028;-66
2021/08/20 05:44:56;;;;;;;5.07;4.60;;;;;;;-142.25;100.00;58004.16;5101192;28;20047;-66
2021/08/20 05:47:23;;;;;;;6.32;4.75;;;;;;;-142.25;100.00;58004.16;5102732;28;20031;-66
2021/08/20 05:49:49;;;;;;;5.57;5.07;;;;;;;-142.25;100.00;58004.16;5100662;28;20110;-65
2021/08/20 05:52:14;;;;;;;4.15;3.83;;;;;;;-142.25;100.00;58004.16;5099813;28;20204;-66
2021/08/20 05:54:40;;;;;;;4.82;4.32;;;;;;;-142.25;100.00;58004.16;5101871;28;20039;-66
2021/08/20 05:57:05;;;;;;;7.25;5.38;;;;;;;-142.25;100.00;58004.16;5099920;28;20032;-67
2021/08/20 05:59:31;;;;;;;5.70;5.20;;;;;;;-142.25;100.00;58004.16;5098942;28;20364;-65
2021/08/20 06:01:56;;;;;;;5.80;4.68;;;;;;;-142.25;100.00;58004.16;5098403;28;20028;-65
2021/08/20 06:04:21;;;;;;;4.90;4.47;;;;;;;-142.25;100.00;58004.16;5103740;28;20042;-65
2021/08/20 06:06:47;;;;;;;5.18;4.75;;;;;;;-142.25;100.00;58004.16;5102863;28;20281;-66
2021/08/20 06:09:12;;;;;;;6.13;5.53;;;;;;;-142.25;100.00;58004.16;5100906;28;20106;-66
2021/08/20 06:11:38;;;;;;;7.40;4.78;;;;;;;-142.25;100.00;58004.16;5098424;28;20330;-67
2021/08/20 06:14:03;;;;;;;5.43;4.32;;;;;;;-142.25;100.00;58004.16;5103510;28;20135;-67
2021/08/20 06:16:28;;;;;;;5.35;4.95;;;;;;;-142.25;100.00;58004.16;5101239;28;20101;-67
2021/08/20 06:18:54;;;;;;;7.95;4.20;;;;;;;-142.25;100.00;58004.16;5100301;28;20064;-67
2021/08/20 06:21:20;;;;;;;5.68;5.18;;;;;;;-142.25;100.00;58004.16;5100957;28;20035;-67
2021/08/20 06:23:45;;;;;;;7.50;5.80;;;;;;;-142.25;100.00;58004.16;5101700;28;20072;-67
2021/08/20 06:26:11;;;;;;;5.70;4.72;;;;;;;-142.25;100.00;58004.16;5101942;28;20040;-67
2021/08/20 06:28:36;;;;;;;7.78;4.75;;;;;;;-142.25;100.00;58004.16;5101417;28;20027;-67
2021/08/20 06:31:04;;;;;;;4.82;4.30;;;;;;;-142.25;100.00;58004.16;5099590;28;20024;-66
2021/08/20 06:33:37;;;;;;;5.18;4.68;;;;;;;-142.25;100.00;58004.16;5101376;28;20028;-67
2021/08/20 06:36:03;;;;;;;6.15;4.18;;;;;;;-142.25;100.00;58004.16;5099901;28;20292;-67
2021/08/20 06:38:29;;;;;;;5.18;4.70;;;;;;;-142.25;100.00;58004.16;5098866;28;20024;-67
2021/08/20 06:40:55;;;;;;;4.03;3.70;;;;;;;-142.25;100.00;58004.16;5099627;28;20473;-67
2021/08/20 06:43:20;;;;;;;4.32;3.92;;;;;;;-142.25;100.00;58004.16;5102756;28;20028;-67
2021/08/20 06:45:46;;;;;;;4.55;4.10;;;;;;;-142.25;100.00;58004.16;5099211;28;20031;-67
2021/08/20 06:48:15;;;;;;;3.72;3.47;;;;;;;-142.25;100.00;58004.16;5102557;28;20047;-67
2021/08/20 06:50:41;;;;;;;5.35;4.00;;;;;;;-142.25;100.00;58004.16;5100648;28;20064;-66
2021/08/20 06:53:07;;;;;;;4.47;3.65;;;;;;;-142.25;100.00;58004.16;5101188;28;20020;-67
2021/08/20 06:55:33;;;;;;;3.70;3.40;;;;;;;-142.25;100.00;58004.16;5101367;28;20023;-67
2021/08/20 06:57:58;;;;;;;9.93;7.10;;;;;;;-142.25;100.00;58004.16;5099824;28;20039;-66
2021/08/20 07:00:24;;;;;;;4.38;3.67;;;;;;;-142.25;100.00;58004.16;5099254;28;20028;-66
2021/08/20 07:02:49;;;;;;;3.67;3.38;;;;;;;-142.25;100.00;58004.16;5098460;28;20032;-65
2021/08/20 07:05:15;;;;;;;3.97;3.47;;;;;;;-142.25;100.00;58004.16;5101718;28;20347;-66
2021/08/20 07:07:41;;;;;;;3.53;3.25;;;;;;;-142.25;100.00;58004.16;5098234;28;20020;-66
2021/08/20 07:10:12;;;;;;;3.83;3.15;;;;;;;-142.25;100.00;58004.16;5097949;28;20055;-66
2021/08/20 07:12:39;;;;;;;4.25;3.25;;;;;;;-142.25;100.00;58004.16;5100419;28;20374;-66
2021/08/20 07:15:06;;;;;;;4.13;3.30;;;;;;;-142.25;100.00;58004.16;5098790;28;20032;-67
2021/08/20 07:17:31;;;;;;;3.33;3.03;;;;;;;-142.25;100.00;58004.16;5101918;28;20027;-66
2021/08/20 07:19:57;;;;;;;3.20;2.90;;;;;;;-142.25;100.00;58004.16;5104598;28;20035;-66
2021/08/20 07:22:23;;;;;;;4.78;4.30;;;;;;;-142.25;100.00;58004.16;5104857;28;20337;-67
2021/08/20 07:24:48;;;;;;;4.10;3.70;;;;;;;-142.25;100.00;58004.16;5103060;28;20037;-67
2021/08/20 07:27:14;;;;;;;4.85;3.05;;;;;;;-142.25;100.00;58004.16;5105999;28;20092;-67
2021/08/20 07:29:39;;;;;;;5.38;3.28;;;;;;;-142.25;100.00;58004.16;5101637;28;20058;-67
2021/08/20 07:32:05;;;;;;;3.85;3.50;;;;;;;-142.25;100.00;58004.16;5104504;28;20544;-67
2021/08/20 07:34:31;;;;;;;3.33;3.03;;;;;;;-142.25;100.00;58004.16;5104730;28;20085;-66
2021/08/20 07:36:56;;;;;;;4.75;4.30;;;;;;;-142.25;100.00;58004.16;5101208;28;20059;-66
2021/08/20 07:39:24;;;;;;;3.97;3.28;;;;;;;-142.25;100.00;58004.16;5103761;28;20024;-67
2021/08/20 07:41:50;;;;;;;3.17;2.83;;;;;;;-142.25;100.00;58004.16;5103437;28;20280;-67
2021/08/20 07:44:15;;;;;;;4.22;3.80;;;;;;;-142.25;100.00;58004.16;5105255;28;20028;-67
2021/08/20 07:46:41;;;;;;;4.05;3.35;;;;;;;-142.25;100.00;58004.16;5103709;28;20027;-66
2021/08/20 07:49:07;;;;;;;4.22;3.75;;;;;;;-142.25;100.00;58004.16;5103865;28;20024;-66
2021/08/20 07:51:33;;;;;;;3.83;3.53;;;;;;;-142.25;100.00;58004.16;5103258;28;20020;-67
2021/08/20 07:53:58;;;;;;;6.82;4.05;;;;;;;-142.25;100.00;58004.16;5104628;28;20399;-65
2021/08/20 07:56:25;;;;;;;4.10;3.70;;;;;;;-142.25;100.00;58004.16;5103358;28;20063;-65
2021/08/20 07:58:50;;;;;;;4.78;4.13;;;;;;;-142.25;100.00;58004.16;5102333;28;20063;-66
2021/08/20 08:01:16;;;;;;;4.72;3.80;;;;;;;-142.25;100.00;58004.16;5103015;28;20281;-66
2021/08/20 08:03:41;;;;;;;5.20;4.03;;;;;;;-142.25;100.00;58004.16;5104447;28;20035;-67
2021/08/20 08:06:11;;;;;;;5.15;3.50;;;;;;;-142.25;100.00;58004.16;5102645;28;20024;-66
2021/08/20 08:08:36;;;;;;;6.55;4.45;;;;;;;-142.25;100.00;58004.16;5103774;28;20020;-66
2021/08/20 08:11:02;;;;;;;5.13;4.13;;;;;;;-142.25;100.00;58004.16;5103735;28;20078;-66
2021/08/20 08:13:27;;;;;;;5.18;3.58;;;;;;;-142.25;100.00;58004.16;5103234;28;20315;-66
2021/08/20 08:15:52;;;;;;;6.60;4.47;;;;;;;-142.25;100.00;58004.16;5102831;28;20035;-66
2021/08/20 08:18:18;;;;;;;10.18;4.95;;;;;;;-142.25;100.00;58004.16;5100266;28;20032;-66
2021/08/20 08:20:43;;;;;;;4.20;3.80;;;;;;;-142.25;100.00;58004.16;5103737;28;20084;-66
2021/08/20 08:23:09;;;;;;;3.97;3.67;;;;;;;-142.25;100.00;58004.16;5102220;28;20438;-67
2021/08/20 08:25:34;;;;;;;4.25;3.92;;;;;;;-142.25;100.00;58004.16;5104593;28;20132;-67
2021/08/20 08:28:00;;;;;;;5.47;4.20;;;;;;;-142.25;100.00;58004.16;5104141;28;20040;-66
2021/08/20 08:30:28;;;;;;;4.88;4.45;;;;;;;-142.25;100.00;58004.16;5102473;28;20043;-66
2021/08/20 08:32:55;;;;;;;4.45;3.88;;;;;;;-142.25;100.00;58004.16;5100816;28;20039;-66
2021/08/20 08:35:21;;;;;;;6.53;3.90;;;;;;;-142.25;100.00;58004.16;5102160;28;20150;-67
2021/08/20 08:37:46;;;;;;;8.20;4.95;;;;;;;-142.25;100.00;58004.16;5101389;28;20466;-66
2021/08/20 08:40:12;;;;;;;4.32;3.92;;;;;;;-142.25;100.00;58004.16;5101906;28;20081;-66
2021/08/20 08:42:38;;;;;;;5.60;4.22;;;;;;;-142.25;100.00;58004.16;5099817;28;20024;-66
2021/08/20 08:45:05;;;;;;;6.65;4.32;;;;;;;-142.25;100.00;58004.16;5102096;28;20034;-67
2021/08/20 08:47:35;;;;;;;7.32;4.38;;;;;;;-142.25;100.00;58004.16;5101645;28;20063;-66
2021/08/20 08:50:03;;;;;;;8.38;4.57;;;;;;;-142.25;100.00;58004.16;5118719;27;20479;-67
2021/08/20 08:52:29;;;;;;;4.85;3.85;;;;;;;-142.25;100.00;58004.16;5102734;28;20107;-67
2021/08/20 08:54:54;;;;;;;8.50;5.47;;;;;;;-142.25;100.00;58004.16;5101526;28;20347;-67
2021/08/20 08:57:20;;;;;;;10.20;7.30;;;;;;;-142.25;100.00;58004.16;5105195;28;20068;-67
2021/08/20 08:59:45;;;;;;;8.75;6.60;;;;;;;-142.25;100.00;58004.16;5103344;28;20036;-66
2021/08/20 09:02:22;;;;;;;7.05;6.20;;;;;;;-142.25;100.00;58004.16;5102297;28;20027;-66
2021/08/20 09:05:17;;;;;;;7.78;5.60;;;;;;;-142.25;100.00;58004.16;5102934;28;20236;-66
2021/08/20 09:07:42;;;;;;;5.40;3.88;;;;;;;-142.25;100.00;58004.16;5094160;28;20126;-67
2021/08/20 09:10:17;;;;;;;4.82;4.43;;;;;;;-142.25;100.00;58004.16;5104136;28;20115;-62
2021/08/20 09:12:49;;;;;;;7.78;4.28;;;;;;;-142.25;100.00;58004.16;5103128;28;20134;-61
2021/08/20 09:15:16;;;;;;;6.95;4.13;;;;;;;-142.25;100.00;58004.16;5101370;28;20059;-61
2021/08/20 09:17:50;;;;;;;4.55;4.07;;;;;;;-142.25;100.00;58004.16;5104454;28;20477;-60
2021/08/20 09:20:18;;;;;;;4.10;3.80;;;;;;;-142.25;100.00;58004.16;5104326;28;20028;-61
2021/08/20 09:22:44;;;;;;;5.30;4.50;;;;;;;-142.25;100.00;58004.16;5102463;28;20039;-60
2021/08/20 09:25:29;;;;;;;5.03;4.53;;;;;;;-142.25;100.00;58004.16;5099561;28;20356;-61
2021/08/20 09:28:22;;;;;;;4.38;3.97;;;;;;;-142.25;100.00;58004.16;5110146;28;20046;-60
2021/08/20 09:30:54;;;;;;;4.28;3.92;;;;;;;-142.25;100.00;58004.16;5099993;28;20089;-60
2021/08/20 09:33:21;;;;;;;4.15;3.85;;;;;;;-142.25;100.00;58004.16;5099139;28;20028;-62
2021/08/20 09:36:14;;;;;;;4.28;3.92;;;;;;;-142.25;100.00;58004.16;5102962;28;20305;-60
2021/08/20 09:38:46;;;;;;;4.78;4.45;;;;;;;-142.25;100.00;58004.16;5102359;28;20039;-60
2021/08/20 09:41:20;;;;;;;4.30;4.03;;;;;;;-142.25;100.00;58004.16;5101291;28;20595;-60
2021/08/20 09:43:50;;;;;;;4.03;3.73;;;;;;;-142.25;100.00;58004.16;5102172;28;20430;-60
2021/08/20 09:46:20;;;;;;;4.50;4.10;;;;;;;-142.25;100.00;58004.16;5100491;28;20038;-60
2021/08/20 09:48:54;;;;;;;4.38;3.97;;;;;;;-142.25;100.00;58004.16;5102473;28;20137;-60
2021/08/20 09:51:47;;;;;;;4.18;3.88;;;;;;;-142.25;100.00;58004.16;5102121;28;20027;-60
2021/08/20 09:54:14;;;;;;;4.53;4.20;;;;;;;-142.25;100.00;58004.16;5093265;28;20407;-60
2021/08/20 09:56:40;;;;;;;4.50;4.20;;;;;;;-142.25;100.00;58004.16;5102404;28;20032;-60
2021/08/20 09:59:08;;;;;;;3.85;3.55;;;;;;;-142.25;100.00;58004.16;5102142;28;20081;-60
2021/08/20 10:01:37;;;;;;;4.40;4.20;;;;;;;-142.25;100.00;58004.16;5101641;28;20031;-60
2021/08/20 10:04:08;;;;;;;4.68;4.38;;;;;;;-142.25;100.00;58004.16;5100866;28;20114;-60
2021/08/20 10:06:39;;;;;;;4.55;4.25;;;;;;;-142.25;100.00;58004.16;5101396;28;20032;-60
2021/08/20 10:09:16;;;;;;;4.20;3.90;;;;;;;-142.25;100.00;58004.16;5100366;28;20498;-60
2021/08/20 10:11:48;;;;;;;4.50;4.20;;;;;;;-142.25;100.00;58004.16;5099904;28;20027;-64
2021/08/20 10:14:15;;;;;;;4.15;3.85;;;;;;;-142.25;100.00;58004.16;5099658;28;20080;-59
2021/08/20 10:16:43;;;;;;;4.60;3.97;;;;;;;-142.25;100.00;58004.16;5101485;28;20077;-60
2021/08/20 10:19:09;;;;;;;4.57;4.28;;;;;;;-142.25;100.00;58004.16;5097298;28;20036;-61
2021/08/20 10:21:40;;;;;;;4.88;4.38;;;;;;;-142.25;100.00;58004.16;5099817;28;20042;-61
2021/08/20 10:24:08;;;;;;;5.30;4.90;;;;;;;-142.25;100.00;58004.16;5101295;28;20729;-61
2021/08/20 10:26:37;;;;;;;4.53;4.13;;;;;;;-142.25;100.00;58004.16;5100637;28;20028;-61
2021/08/20 10:29:03;;;;;;;4.53;4.18;;;;;;;-142.25;100.00;58004.16;5101512;28;20023;-61
2021/08/20 10:31:30;;;;;;;4.97;3.83;;;;;;;-142.25;100.00;58004.16;5100936;28;20027;-61
2021/08/20 10:33:56;;;;;;;4.75;4.35;;;;;;;-142.25;100.00;58004.16;5098691;28;20317;-61
2021/08/20 10:36:40;;;;;;;4.10;3.80;;;;;;;-142.25;100.00;58004.16;5110285;28;20049;-61
2021/08/20 10:39:07;;;;;;;6.65;4.88;;;;;;;-142.25;100.00;58004.16;5101109;28;20031;-60
2021/08/20 10:41:33;;;;;;;5.13;4.72;;;;;;;-142.25;100.00;58004.16;5102605;28;20046;-60
2021/08/20 10:44:11;;;;;;;4.70;4.30;;;;;;;-142.25;100.00;58004.16;5101602;28;20038;-66
2021/08/20 10:46:37;;;;;;;5.40;4.78;;;;;;;-142.25;100.00;58004.16;5101765;28;20031;-61
2021/08/20 10:49:19;;;;;;;4.70;4.40;;;;;;;-142.25;100.00;58004.16;5101604;28;20305;-61
2021/08/20 10:51:55;;;;;;;4.63;4.32;;;;;;;-142.25;100.00;58004.16;5099706;28;20072;-61
2021/08/20 10:54:41;;;;;;;4.50;4.20;;;;;;;-142.25;100.00;58004.16;5109220;28;20024;-61
2021/08/20 10:57:29;;;;;;;5.93;5.53;;;;;;;-142.25;100.00;58004.16;5101420;28;20032;-61
2021/08/20 10:59:56;;;;;;;5.07;4.65;;;;;;;-142.25;100.00;58004.16;5098717;28;20035;-61
2021/08/20 11:02:22;;;;;;;4.72;4.30;;;;;;;-142.25;100.00;58004.16;5099404;28;20323;-61
2021/08/20 11:05:02;;;;;;;5.53;4.40;;;;;;;-142.25;100.00;58004.16;5101848;28;20053;-61
2021/08/20 11:07:46;;;;;;;5.13;4.75;;;;;;;-142.25;100.00;58004.16;5099104;28;20035;-61
2021/08/20 11:10:11;;;;;;;4.90;4.50;;;;;;;-142.25;100.00;58004.16;5097360;28;20048;-60